createdAt,value
2023-04-15T00:01:19.389Z,9.90
2023-04-15T00:03:48.362Z,7.75
2023-04-15T00:06:16.103Z,7.72
2023-04-15T00:08:43.712Z,8.07
2023-04-15T00:11:12.690Z,7.82
2023-04-15T00:13:41.414Z,8.55
2023-04-15T00:16:10.653Z,8.02
2023-04-15T00:18:39.476Z,6.90
2023-04-15T00:21:07.239Z,7.90
2023-04-15T00:23:36.363Z,8.25
2023-04-15T00:26:04.963Z,8.82
2023-04-15T00:28:34.150Z,8.02
2023-04-15T00:31:02.237Z,7.78
2023-04-15T00:33:29.995Z,8.15
2023-04-15T00:35:58.406Z,9.45
2023-04-15T00:38:26.053Z,8.07
2023-04-15T00:40:55.426Z,9.68
2023-04-15T00:43:22.992Z,7.22
2023-04-15T00:45:54.187Z,8.07
2023-04-15T00:48:22.277Z,7.90
2023-04-15T00:50:51.867Z,7.65
2023-04-15T00:53:19.844Z,6.90
2023-04-15T00:55:48.409Z,7.60
2023-04-15T00:58:16.345Z,7.60
2023-04-15T01:00:44.194Z,8.73
2023-04-15T01:03:13.943Z,8.13
2023-04-15T01:05:41.685Z,9.25
2023-04-15T01:08:09.694Z,8.80
2023-04-15T01:10:37.786Z,8.20
2023-04-15T01:13:05.423Z,7.93
2023-04-15T01:15:34.372Z,8.00
2023-04-15T01:18:04.126Z,8.38
2023-04-15T01:20:33.061Z,7.97
2023-04-15T01:23:01.450Z,8.13
2023-04-15T01:25:34.705Z,9.10
2023-04-15T01:28:03.173Z,7.88
2023-04-15T01:30:34.588Z,8.85
2023-04-15T01:33:02.607Z,8.40
2023-04-15T01:35:33.951Z,9.50
2023-04-15T01:38:10.450Z,9.38
2023-04-15T01:40:40.828Z,11.65
2023-04-15T01:43:09.273Z,11.82
2023-04-15T01:45:36.967Z,11.07
2023-04-15T01:48:05.253Z,10.25
2023-04-15T01:50:34.048Z,9.40
2023-04-15T01:53:03.589Z,10.90
2023-04-15T01:55:32.454Z,10.45
2023-04-15T01:58:01.381Z,10.43
2023-04-15T02:00:54.342Z,8.90
2023-04-15T02:03:22.598Z,9.60
2023-04-15T02:05:51.436Z,9.60
2023-04-15T02:08:19.519Z,8.55
2023-04-15T02:10:47.460Z,8.07
2023-04-15T02:13:16.923Z,9.15
2023-04-15T02:15:48.403Z,10.20
2023-04-15T02:18:20.840Z,8.70
2023-04-15T02:23:19.525Z,8.95
2023-04-15T02:25:53.581Z,9.18
2023-04-15T02:28:23.522Z,9.43
2023-04-15T02:30:52.672Z,8.85
2023-04-15T02:33:20.805Z,9.95
2023-04-15T02:35:48.435Z,9.30
2023-04-15T02:38:18.463Z,9.30
2023-04-15T02:43:21.687Z,9.45
2023-04-15T02:45:54.223Z,9.27
2023-04-15T02:48:23.402Z,10.40
2023-04-15T02:50:51.952Z,11.35
2023-04-15T02:53:20.809Z,11.98
2023-04-15T02:55:48.333Z,10.02
2023-04-15T02:58:15.960Z,8.98
2023-04-15T03:00:43.534Z,9.40
2023-04-15T03:03:16.623Z,10.48
2023-04-15T03:05:45.368Z,9.40
2023-04-15T03:08:14.875Z,9.07
2023-04-15T03:10:42.509Z,8.20
2023-04-15T03:13:10.140Z,10.48
2023-04-15T03:15:40.452Z,11.25
2023-04-15T03:18:08.550Z,9.88
2023-04-15T03:20:38.220Z,10.65
2023-04-15T03:23:07.615Z,9.77
2023-04-15T03:25:38.033Z,11.95
2023-04-15T03:28:07.713Z,11.82
2023-04-15T03:30:36.528Z,9.25
2023-04-15T03:33:04.416Z,8.95
2023-04-15T03:35:33.528Z,9.25
2023-04-15T03:38:02.543Z,9.75
2023-04-15T03:40:31.092Z,9.65
2023-04-15T03:42:58.796Z,9.20
2023-04-15T03:45:26.599Z,11.55
2023-04-15T03:47:54.250Z,10.68
2023-04-15T03:50:22.935Z,10.02
2023-04-15T03:52:51.862Z,10.63
2023-04-15T03:55:20.819Z,10.73
2023-04-15T03:57:48.815Z,11.73
2023-04-15T04:00:16.631Z,12.23
2023-04-15T04:02:45.993Z,12.32
2023-04-15T04:05:13.795Z,13.43
2023-04-15T04:07:41.371Z,11.13
2023-04-15T04:10:11.440Z,11.38
2023-04-15T04:12:40.311Z,12.45
2023-04-15T04:15:09.240Z,10.88
2023-04-15T04:17:37.421Z,11.32
2023-04-15T04:20:07.393Z,10.57
2023-04-15T04:22:38.960Z,12.18
2023-04-15T04:25:08.507Z,11.35
2023-04-15T04:27:38.001Z,10.68
2023-04-15T04:30:08.468Z,10.32
2023-04-15T04:32:36.904Z,11.25
2023-04-15T04:35:05.529Z,10.25
2023-04-15T04:37:33.078Z,11.13
2023-04-15T04:40:00.713Z,12.05
2023-04-15T04:42:28.907Z,12.00
2023-04-15T04:45:01.168Z,11.15
2023-04-15T04:47:30.182Z,12.05
2023-04-15T04:49:58.416Z,12.70
2023-04-15T04:52:26.511Z,11.32
2023-04-15T04:54:55.837Z,10.88
2023-04-15T04:57:23.386Z,11.27
2023-04-15T04:59:51.420Z,10.23
2023-04-15T05:02:19.706Z,10.77
2023-04-15T05:04:54.274Z,12.07
2023-04-15T05:07:22.127Z,11.07
2023-04-15T05:09:49.643Z,12.57
2023-04-15T05:12:18.191Z,11.48
2023-04-15T05:14:46.661Z,12.85
2023-04-15T05:17:16.662Z,12.32
2023-04-15T05:19:46.811Z,13.07
2023-04-15T05:22:17.414Z,11.82
2023-04-15T05:24:48.512Z,12.18
2023-04-15T05:27:16.201Z,14.27
2023-04-15T05:29:43.719Z,13.45
2023-04-15T05:32:11.978Z,14.57
2023-04-15T05:34:39.516Z,13.23
2023-04-15T05:37:34.209Z,12.57
2023-04-15T05:40:03.423Z,12.73
2023-04-15T05:42:31.382Z,13.57
2023-04-15T05:44:58.909Z,14.55
2023-04-15T05:47:27.362Z,15.05
2023-04-15T05:49:55.900Z,12.13
2023-04-15T05:52:23.474Z,13.50
2023-04-15T05:54:53.230Z,13.45
2023-04-15T05:57:20.841Z,12.43
2023-04-15T05:59:48.972Z,12.65
2023-04-15T06:02:17.412Z,12.65
2023-04-15T06:04:45.020Z,13.82
2023-04-15T06:07:12.885Z,13.73
2023-04-15T06:09:44.617Z,12.98
2023-04-15T06:12:13.733Z,13.50
2023-04-15T06:14:41.318Z,13.98
2023-04-15T06:17:09.172Z,13.77
2023-04-15T06:19:37.230Z,13.00
2023-04-15T06:22:07.579Z,12.55
2023-04-15T06:24:36.964Z,14.10
2023-04-15T06:27:05.119Z,13.90
2023-04-15T06:29:34.410Z,13.82
2023-04-15T06:32:27.679Z,14.05
2023-04-15T06:34:56.647Z,13.43
2023-04-15T06:37:24.559Z,15.25
2023-04-15T06:39:52.861Z,13.70
2023-04-15T06:42:23.395Z,14.40
2023-04-15T06:44:53.195Z,15.52
2023-04-15T06:47:20.793Z,14.20
2023-04-15T06:49:48.422Z,15.25
2023-04-15T06:52:16.557Z,14.52
2023-04-15T06:54:44.447Z,14.70
2023-04-15T06:57:13.914Z,13.80
2023-04-15T06:59:44.926Z,16.17
2023-04-15T07:02:16.533Z,16.95
2023-04-15T07:04:44.791Z,16.48
2023-04-15T07:07:13.313Z,16.52
2023-04-15T07:09:41.449Z,15.77
2023-04-15T07:12:09.122Z,15.55
2023-04-15T07:14:37.050Z,15.02
2023-04-15T07:17:04.762Z,15.35
2023-04-15T07:19:33.723Z,15.45
2023-04-15T07:22:01.850Z,14.98
2023-04-15T07:24:29.991Z,16.17
2023-04-15T07:26:59.443Z,15.70
2023-04-15T07:29:30.441Z,15.40
2023-04-15T07:31:58.072Z,15.38
2023-04-15T07:34:25.742Z,14.68
2023-04-15T07:36:54.638Z,15.75
2023-04-15T07:39:22.595Z,15.80
2023-04-15T07:41:50.324Z,15.00
2023-04-15T07:44:18.522Z,15.75
2023-04-15T07:46:48.761Z,14.88
2023-04-15T07:49:16.358Z,14.93
2023-04-15T07:51:44.265Z,15.00
2023-04-15T07:54:13.999Z,12.80
2023-04-15T07:56:43.439Z,16.13
2023-04-15T07:59:13.434Z,13.70
2023-04-15T08:01:41.286Z,14.80
2023-04-15T08:04:10.671Z,13.48
2023-04-15T08:06:39.715Z,13.57
2023-04-15T08:09:09.540Z,15.73
2023-04-15T08:11:38.581Z,12.10
2023-04-15T08:14:06.823Z,15.70
2023-04-15T08:16:35.489Z,13.50
2023-04-15T08:19:03.841Z,12.27
2023-04-15T08:21:32.133Z,14.20
2023-04-15T08:24:01.618Z,12.43
2023-04-15T08:26:29.302Z,12.95
2023-04-15T08:28:58.326Z,12.60
2023-04-15T08:31:27.802Z,12.82
2023-04-15T08:33:57.410Z,12.30
2023-04-15T08:36:25.011Z,12.82
2023-04-15T08:38:52.738Z,12.15
2023-04-15T08:41:24.410Z,11.82
2023-04-15T08:44:02.528Z,12.93
2023-04-15T08:46:31.964Z,13.00
2023-04-15T08:49:00.150Z,12.82
2023-04-15T08:51:28.420Z,12.07
2023-04-15T08:54:21.685Z,12.95
2023-04-15T08:56:50.451Z,12.00
2023-04-15T08:59:21.272Z,11.75
2023-04-15T09:01:51.006Z,11.60
2023-04-15T09:04:19.426Z,12.50
2023-04-15T09:06:47.894Z,16.70
2023-04-15T09:09:15.637Z,14.15
2023-04-15T09:11:44.090Z,12.50
2023-04-15T09:14:12.052Z,12.15
2023-04-15T09:16:59.349Z,12.52
2023-04-15T09:19:28.445Z,13.00
2023-04-15T09:21:59.104Z,11.60
2023-04-15T09:24:52.504Z,11.98
2023-04-15T09:27:22.534Z,13.45
2023-04-15T09:30:18.557Z,12.43
2023-04-15T09:32:52.741Z,12.73
2023-04-15T09:35:23.619Z,11.98
2023-04-15T09:37:52.314Z,13.27
2023-04-15T09:40:33.652Z,12.20
2023-04-15T09:45:33.514Z,12.32
2023-04-15T09:48:17.352Z,11.93
2023-04-15T09:50:46.705Z,11.65
2023-04-15T09:53:18.004Z,12.80
2023-04-15T09:55:47.428Z,11.80
2023-04-15T09:58:23.315Z,11.93
2023-04-15T10:00:52.793Z,11.05
2023-04-15T10:03:24.736Z,11.68
2023-04-15T10:05:54.490Z,10.73
2023-04-15T10:08:25.181Z,10.18
2023-04-15T10:10:53.138Z,12.13
2023-04-15T10:13:23.551Z,10.82
2023-04-15T10:15:53.347Z,10.55
2023-04-15T10:18:26.974Z,9.63
2023-04-15T10:20:56.550Z,11.65
2023-04-15T10:23:26.414Z,9.90
2023-04-15T10:25:55.354Z,10.05
2023-04-15T10:28:23.970Z,9.98
2023-04-15T10:30:53.592Z,9.70
2023-04-15T10:33:25.282Z,8.88
2023-04-15T10:35:55.150Z,9.05
2023-04-15T10:38:34.485Z,9.95
2023-04-15T10:41:21.130Z,9.45
2023-04-15T10:43:52.414Z,9.88
2023-04-15T10:46:22.358Z,10.63
2023-04-15T10:48:52.886Z,9.43
2023-04-15T10:51:31.660Z,9.30
2023-04-15T10:54:01.615Z,8.77
2023-04-15T10:56:30.169Z,10.18
2023-04-15T10:59:00.362Z,9.70
2023-04-15T11:01:51.974Z,9.80
2023-04-15T11:07:42.854Z,9.80
2023-04-15T11:10:54.806Z,8.13
2023-04-15T11:13:52.431Z,9.43
2023-04-15T11:16:21.388Z,7.70
2023-04-15T11:18:56.873Z,8.15
2023-04-15T11:21:28.178Z,8.43
2023-04-15T11:23:57.636Z,8.48
2023-04-15T11:26:27.522Z,12.60
2023-04-15T11:28:55.882Z,7.90
2023-04-15T11:31:28.529Z,7.13
2023-04-15T11:36:28.257Z,7.47
2023-04-15T11:38:59.905Z,6.85
2023-04-15T11:41:27.543Z,6.10
2023-04-15T11:43:55.342Z,5.97
2023-04-15T11:46:30.945Z,7.50
2023-04-15T11:49:00.037Z,6.38
2023-04-15T11:51:27.692Z,6.50
2023-04-15T11:53:56.873Z,5.22
2023-04-15T11:56:25.869Z,6.60
2023-04-15T11:58:56.723Z,6.07
2023-04-15T12:01:32.315Z,6.00
2023-04-15T12:04:01.516Z,6.53
2023-04-15T12:06:34.918Z,5.22
2023-04-15T12:09:09.282Z,5.68
2023-04-15T12:11:40.082Z,5.32
2023-04-15T12:14:11.132Z,5.63
2023-04-15T12:16:47.920Z,5.43
2023-04-15T12:19:25.779Z,8.00
2023-04-15T12:21:54.876Z,5.90
2023-04-15T12:24:24.125Z,5.07
2023-04-15T12:26:53.924Z,4.82
2023-04-15T12:29:27.001Z,5.00
2023-04-15T12:31:56.531Z,5.55
2023-04-15T12:34:29.913Z,5.20
2023-04-15T12:37:03.494Z,5.78
2023-04-15T12:39:38.321Z,5.28
2023-04-15T12:42:06.976Z,5.40
2023-04-15T12:44:36.871Z,4.90
2023-04-15T12:47:04.824Z,4.70
2023-04-15T12:49:33.675Z,6.65
2023-04-15T12:52:03.013Z,5.13
2023-04-15T12:54:32.996Z,5.15
2023-04-15T12:57:01.217Z,4.38
2023-04-15T12:59:29.487Z,5.20
2023-04-15T13:01:57.247Z,4.53
2023-04-15T13:04:25.890Z,5.25
2023-04-15T13:06:53.500Z,4.85
2023-04-15T13:09:21.449Z,5.63
2023-04-15T13:11:50.905Z,4.45
2023-04-15T13:14:18.613Z,4.60
2023-04-15T13:16:46.379Z,6.85
2023-04-15T13:19:14.216Z,4.60
2023-04-15T13:21:42.929Z,4.10
2023-04-15T13:24:11.246Z,4.63
2023-04-15T13:26:38.826Z,4.20
2023-04-15T13:29:07.870Z,4.55
2023-04-15T13:31:35.594Z,5.43
2023-04-15T13:34:03.412Z,4.63
2023-04-15T13:36:31.254Z,4.18
2023-04-15T13:38:59.886Z,5.53
2023-04-15T13:41:28.530Z,4.78
2023-04-15T13:43:56.591Z,4.07
2023-04-15T13:46:28.002Z,4.60
2023-04-15T13:48:55.798Z,4.25
2023-04-15T13:51:23.684Z,4.50
2023-04-15T13:53:51.415Z,5.25
2023-04-15T13:56:19.253Z,4.63
2023-04-15T13:58:48.315Z,4.25
2023-04-15T14:01:16.258Z,4.40
2023-04-15T14:03:45.285Z,4.60
2023-04-15T14:06:12.948Z,4.53
2023-04-15T14:08:41.038Z,6.00
2023-04-15T14:11:09.483Z,4.85
2023-04-15T14:13:37.997Z,5.30
2023-04-15T14:16:07.701Z,4.18
2023-04-15T14:18:37.496Z,3.78
2023-04-15T14:21:07.868Z,4.63
2023-04-15T14:23:39.962Z,4.88
2023-04-15T14:26:07.680Z,4.38
2023-04-15T14:28:35.276Z,6.28
2023-04-15T14:31:02.925Z,4.07
2023-04-15T14:33:30.572Z,4.10
2023-04-15T14:35:58.319Z,5.30
2023-04-15T14:38:27.565Z,4.63
2023-04-15T14:40:55.364Z,4.53
2023-04-15T14:43:23.311Z,4.35
2023-04-15T14:45:52.582Z,4.68
2023-04-15T14:48:20.330Z,4.72
2023-04-15T14:50:47.994Z,3.78
2023-04-15T14:53:15.896Z,4.78
2023-04-15T14:55:45.500Z,4.63
2023-04-15T14:58:13.391Z,4.75
2023-04-15T15:00:44.224Z,10.45
2023-04-15T15:03:14.955Z,7.03
2023-04-15T15:05:44.398Z,3.60
2023-04-15T15:08:13.494Z,3.65
2023-04-15T15:10:49.167Z,3.33
2023-04-15T15:13:19.868Z,4.20
2023-04-15T15:15:50.060Z,3.85
2023-04-15T15:18:18.804Z,3.53
2023-04-15T15:20:46.961Z,3.63
2023-04-15T15:23:14.525Z,3.95
2023-04-15T15:25:42.252Z,3.97
2023-04-15T15:28:10.376Z,4.00
2023-04-15T15:30:39.778Z,3.95
2023-04-15T15:33:07.479Z,4.25
2023-04-15T15:35:35.599Z,3.90
2023-04-15T15:38:03.263Z,4.43
2023-04-15T15:40:33.458Z,5.45
2023-04-15T15:43:01.085Z,4.95
2023-04-15T15:45:29.332Z,5.18
2023-04-15T15:47:59.193Z,4.63
2023-04-15T15:50:26.922Z,4.07
2023-04-15T15:52:55.051Z,4.45
2023-04-15T15:55:23.402Z,6.40
2023-04-15T15:57:52.422Z,4.30
2023-04-15T16:00:21.240Z,6.38
2023-04-15T16:03:05.686Z,4.88
2023-04-15T16:05:36.290Z,5.03
2023-04-15T16:08:03.983Z,4.82
2023-04-15T16:10:31.964Z,5.35
2023-04-15T16:12:59.571Z,5.18
2023-04-15T16:15:28.037Z,5.90
2023-04-15T16:17:55.683Z,5.78
2023-04-15T16:20:23.362Z,7.50
2023-04-15T16:22:52.878Z,6.15
2023-04-15T16:25:20.730Z,7.28
2023-04-15T16:27:59.304Z,7.15
2023-04-15T16:30:31.339Z,6.40
2023-04-15T16:32:59.153Z,8.27
2023-04-15T16:35:26.821Z,8.75
2023-04-15T16:37:55.704Z,7.63
2023-04-15T16:40:23.979Z,10.15
2023-04-15T16:42:51.938Z,6.05
2023-04-15T16:45:19.683Z,7.68
2023-04-15T16:47:47.322Z,6.00
2023-04-15T16:50:14.882Z,8.85
2023-04-15T16:52:43.875Z,8.00
2023-04-15T16:55:12.896Z,6.38
2023-04-15T16:58:02.135Z,7.68
2023-04-15T17:00:28.900Z,8.73
2023-04-15T17:02:57.263Z,7.00
2023-04-15T17:05:27.209Z,8.40
2023-04-15T17:07:54.966Z,8.30
2023-04-15T17:10:24.017Z,10.15
2023-04-15T17:12:52.600Z,8.40
2023-04-15T17:15:20.534Z,11.90
2023-04-15T17:17:48.373Z,9.57
2023-04-15T17:20:17.285Z,8.63
2023-04-15T17:22:45.400Z,9.75
2023-04-15T17:25:14.544Z,10.32
2023-04-15T17:27:43.733Z,9.57
2023-04-15T17:30:11.884Z,8.10
2023-04-15T17:32:40.397Z,8.65
2023-04-15T17:35:08.964Z,8.68
2023-04-15T17:37:36.788Z,9.48
2023-04-15T17:40:06.716Z,9.40
2023-04-15T17:42:37.896Z,9.80
2023-04-15T17:45:08.069Z,9.60
2023-04-15T17:47:37.321Z,11.65
2023-04-15T17:52:58.612Z,8.45
2023-04-15T17:55:26.204Z,12.00
2023-04-15T17:57:53.847Z,9.02
2023-04-15T18:00:22.750Z,11.57
2023-04-15T18:02:50.588Z,8.90
2023-04-15T18:05:20.610Z,9.23
2023-04-15T18:07:48.938Z,11.75
2023-04-15T18:10:20.909Z,9.30
2023-04-15T18:15:17.463Z,11.02
2023-04-15T18:17:46.918Z,11.57
2023-04-15T18:20:15.256Z,9.32
2023-04-15T18:22:43.871Z,10.13
2023-04-15T18:25:14.061Z,12.55
2023-04-15T18:27:41.766Z,13.43
2023-04-15T18:30:10.735Z,11.52
2023-04-15T18:32:38.748Z,10.50
2023-04-15T18:35:08.897Z,12.75
2023-04-15T18:37:37.995Z,12.88
2023-04-15T18:40:08.842Z,12.00
2023-04-15T18:42:36.989Z,13.27
2023-04-15T18:45:04.886Z,11.38
2023-04-15T18:47:33.558Z,12.63
2023-04-15T18:50:01.192Z,14.57
2023-04-15T18:52:30.923Z,13.18
2023-04-15T18:54:58.551Z,18.25
2023-04-15T18:57:32.981Z,12.90
2023-04-15T19:00:03.514Z,15.15
2023-04-15T19:02:32.442Z,16.10
2023-04-15T19:05:03.595Z,15.48
2023-04-15T19:07:32.999Z,15.13
2023-04-15T19:10:00.687Z,17.90
2023-04-15T19:12:28.394Z,13.93
2023-04-15T19:14:56.143Z,16.63
2023-04-15T19:17:23.749Z,14.50
2023-04-15T19:19:51.674Z,17.58
2023-04-15T19:22:19.405Z,17.92
2023-04-15T19:24:48.645Z,16.27
2023-04-15T19:27:16.236Z,18.85
2023-04-15T19:29:44.158Z,17.52
2023-04-15T19:32:13.868Z,18.05
2023-04-15T19:34:41.468Z,18.63
2023-04-15T19:37:09.083Z,19.58
2023-04-15T19:39:36.688Z,17.67
2023-04-15T19:42:05.572Z,16.63
2023-04-15T19:44:33.889Z,18.25
2023-04-15T19:47:01.940Z,17.77
2023-04-15T19:49:29.520Z,22.35
2023-04-15T19:51:57.143Z,21.80
2023-04-15T19:54:24.728Z,21.35
2023-04-15T19:56:53.342Z,20.10
2023-04-15T19:59:22.989Z,21.38
2023-04-15T20:01:50.827Z,19.75
2023-04-15T20:04:18.606Z,23.58
2023-04-15T20:06:46.431Z,20.92
2023-04-15T20:09:14.036Z,20.40
2023-04-15T20:12:09.599Z,19.40
2023-04-15T20:14:31.891Z,22.02
2023-04-15T20:17:01.336Z,21.88
2023-04-15T20:19:28.888Z,22.63
2023-04-15T20:21:57.446Z,23.00
2023-04-15T20:24:25.621Z,23.10
2023-04-15T20:26:53.153Z,22.23
2023-04-15T20:29:20.910Z,20.80
2023-04-15T20:31:51.760Z,23.48
2023-04-15T20:34:19.588Z,23.92
2023-04-15T20:36:47.123Z,22.27
2023-04-15T20:39:14.694Z,20.13
2023-04-15T20:41:42.256Z,23.40
2023-04-15T20:44:09.836Z,20.65
2023-04-15T20:46:37.450Z,22.35
2023-04-15T20:49:06.753Z,23.48
2023-04-15T20:51:37.902Z,24.45
2023-04-15T20:54:06.056Z,21.23
2023-04-15T20:56:35.350Z,20.48
2023-04-15T20:59:03.339Z,23.40
2023-04-15T21:01:31.142Z,23.33
2023-04-15T21:04:00.183Z,24.00
2023-04-15T21:06:30.025Z,23.52
2023-04-15T21:08:57.625Z,22.90
2023-04-15T21:11:49.522Z,22.83
2023-04-15T21:14:14.473Z,20.88
2023-04-15T21:16:42.235Z,24.27
2023-04-15T21:19:10.543Z,22.25
2023-04-15T21:21:39.538Z,22.45
2023-04-15T21:24:07.993Z,20.75
2023-04-15T21:26:36.773Z,25.08
2023-04-15T21:29:04.689Z,24.38
2023-04-15T21:31:32.929Z,21.65
2023-04-15T21:34:00.570Z,21.88
2023-04-15T21:36:28.904Z,24.15
2023-04-15T21:38:57.825Z,23.30
2023-04-15T21:41:29.915Z,25.98
2023-04-15T21:43:58.000Z,24.67
2023-04-15T21:46:32.751Z,24.50
2023-04-15T21:49:01.279Z,23.80
2023-04-15T21:51:28.885Z,27.20
2023-04-15T21:53:58.007Z,26.08
2023-04-15T21:56:26.344Z,25.48
2023-04-15T21:58:57.354Z,25.33
2023-04-15T22:01:25.320Z,24.80
2023-04-15T22:03:53.128Z,24.42
2023-04-15T22:06:21.061Z,29.02
2023-04-15T22:08:56.856Z,25.73
2023-04-15T22:11:30.796Z,26.60
2023-04-15T22:14:00.118Z,28.67
2023-04-15T22:16:28.189Z,28.02
2023-04-15T22:18:57.480Z,29.27
2023-04-15T22:21:25.137Z,30.65
2023-04-15T22:23:53.059Z,29.50
2023-04-15T22:26:43.717Z,25.75
2023-04-15T22:29:11.909Z,27.63
2023-04-15T22:31:39.585Z,29.10
2023-04-15T22:34:07.904Z,29.52
2023-04-15T22:36:36.011Z,26.55
2023-04-15T22:39:05.698Z,29.17
2023-04-15T22:41:35.925Z,31.30
2023-04-15T22:44:04.992Z,30.73
2023-04-15T22:46:33.514Z,33.63
2023-04-15T22:49:01.860Z,31.02
2023-04-15T22:51:29.508Z,31.55
2023-04-15T22:53:59.045Z,34.47
2023-04-15T22:56:26.821Z,35.50
2023-04-15T22:58:54.566Z,32.47
2023-04-15T23:01:26.920Z,33.70
2023-04-15T23:04:04.036Z,35.75
2023-04-15T23:06:34.996Z,33.08
2023-04-15T23:09:02.882Z,31.27
2023-04-15T23:11:30.724Z,39.08
2023-04-15T23:13:58.249Z,36.30
2023-04-15T23:16:27.777Z,33.65
2023-04-15T23:18:55.783Z,35.33
2023-04-15T23:21:27.903Z,34.25
2023-04-15T23:23:55.523Z,35.55
2023-04-15T23:26:23.300Z,34.03
2023-04-15T23:28:51.015Z,30.98
2023-04-15T23:31:18.653Z,36.72
2023-04-15T23:33:47.926Z,35.25
2023-04-15T23:36:15.533Z,34.95
2023-04-15T23:38:43.286Z,33.85
2023-04-15T23:41:11.948Z,38.05
2023-04-15T23:43:39.901Z,34.00
2023-04-15T23:46:08.553Z,38.67
2023-04-15T23:48:36.324Z,38.50
2023-04-15T23:51:06.047Z,38.13
2023-04-15T23:57:41.428Z,34.38
